createdAt,value
2023-02-01T00:00:21.810Z,5.40
2023-02-01T00:02:50.337Z,5.60
2023-02-01T00:05:18.958Z,6.60
2023-02-01T00:07:49.378Z,6.40
2023-02-01T00:10:18.336Z,6.10
2023-02-01T00:12:48.705Z,6.00
2023-02-01T00:15:17.393Z,5.80
2023-02-01T00:17:46.492Z,4.50
2023-02-01T00:20:14.881Z,6.00
2023-02-01T00:22:43.561Z,6.60
2023-02-01T00:25:12.146Z,6.70
2023-02-01T00:27:40.632Z,6.30
2023-02-01T00:30:10.167Z,5.30
2023-02-01T00:32:38.924Z,5.30
2023-02-01T00:35:09.409Z,5.00
2023-02-01T00:37:39.687Z,5.00
2023-02-01T00:40:09.257Z,5.10
2023-02-01T00:42:38.181Z,5.90
2023-02-01T00:45:07.938Z,4.70
2023-02-01T00:47:36.274Z,5.80
2023-02-01T00:50:05.550Z,4.90
2023-02-01T00:52:34.163Z,4.40
2023-02-01T00:55:02.856Z,5.90
2023-02-01T00:57:31.846Z,5.80
2023-02-01T01:00:00.236Z,5.70
2023-02-01T01:02:29.219Z,5.60
2023-02-01T01:04:59.037Z,6.10
2023-02-01T01:07:28.953Z,6.10
2023-02-01T01:09:57.638Z,6.00
2023-02-01T01:12:26.224Z,6.20
2023-02-01T01:14:54.808Z,6.00
2023-02-01T01:17:23.213Z,6.40
2023-02-01T01:19:51.676Z,5.60
2023-02-01T01:22:20.058Z,6.00
2023-02-01T01:24:48.441Z,6.20
2023-02-01T01:29:53.418Z,5.60
2023-02-01T01:32:21.874Z,6.20
2023-02-01T01:34:50.248Z,5.70
2023-02-01T01:37:18.730Z,5.80
2023-02-01T01:39:47.211Z,7.20
2023-02-01T01:42:15.694Z,7.20
2023-02-01T05:51:39.782Z,7.60
2023-02-01T05:54:09.697Z,7.40
2023-02-01T05:56:38.077Z,7.80
2023-02-01T05:59:06.559Z,7.40
2023-02-01T06:01:35.554Z,7.70
2023-02-01T06:04:04.178Z,7.00
2023-02-01T06:06:32.828Z,8.00
2023-02-01T06:09:02.131Z,7.70
2023-02-01T06:11:32.757Z,8.00
2023-02-01T06:14:01.816Z,7.10
2023-02-01T06:16:30.369Z,7.50
2023-02-01T06:18:59.478Z,7.50
2023-02-01T06:21:27.835Z,7.50
2023-02-01T06:23:58.861Z,7.80
2023-02-01T06:26:29.870Z,6.80
2023-02-01T06:28:58.403Z,7.50
2023-02-01T06:31:27.053Z,7.50
2023-02-01T06:33:55.865Z,6.70
2023-02-01T06:36:26.499Z,7.50
2023-02-01T06:38:57.763Z,7.20
2023-02-01T06:41:29.255Z,7.80
2023-02-01T06:43:58.205Z,8.20
2023-02-01T06:46:26.848Z,6.50
2023-02-01T06:48:55.570Z,7.40
2023-02-01T06:51:26.110Z,6.70
2023-02-01T06:53:55.028Z,7.20
2023-02-01T06:56:23.792Z,7.00
2023-02-01T06:58:52.468Z,7.30
2023-02-01T07:01:21.255Z,8.10
2023-02-01T07:03:52.121Z,9.20
2023-02-01T07:06:20.582Z,8.10
2023-02-01T07:08:52.033Z,8.70
2023-02-01T07:11:20.415Z,9.30
2023-02-01T07:13:49.222Z,9.30
2023-02-01T07:16:19.422Z,8.40
2023-02-01T07:18:48.110Z,8.70
2023-02-01T07:21:16.902Z,6.70
2023-02-01T07:23:45.290Z,8.50
2023-02-01T07:26:15.254Z,8.30
2023-02-01T07:28:43.995Z,6.90
2023-02-01T07:31:16.468Z,8.30
2023-02-01T07:33:44.953Z,8.70
2023-02-01T07:36:15.046Z,9.10
2023-02-01T07:41:12.453Z,8.20
2023-02-01T07:43:41.141Z,8.10
2023-02-01T07:46:10.577Z,7.50
2023-02-01T07:48:40.057Z,8.50
2023-02-01T07:51:15.808Z,6.00
2023-02-01T07:53:44.492Z,9.40
2023-02-01T07:56:14.316Z,7.70
2023-02-01T08:01:21.682Z,7.60
2023-02-01T08:03:54.903Z,8.60
2023-02-01T08:06:23.911Z,8.00
2023-02-01T08:08:54.242Z,7.70
2023-02-01T08:11:23.247Z,7.70
2023-02-01T08:13:51.920Z,8.40
2023-02-01T08:16:20.933Z,7.50
2023-02-01T08:18:49.298Z,7.90
2023-02-01T08:21:23.542Z,9.70
2023-02-01T08:23:52.003Z,7.90
2023-02-01T08:26:25.419Z,9.00
2023-02-01T08:28:56.339Z,10.30
2023-02-01T08:31:26.110Z,10.60
2023-02-01T08:33:55.916Z,8.80
2023-02-01T08:36:24.816Z,8.20
2023-02-01T08:38:53.345Z,8.50
2023-02-01T08:41:24.174Z,8.20
2023-02-01T08:43:52.964Z,6.90
2023-02-01T08:46:21.805Z,8.10
2023-02-01T08:48:50.644Z,7.60
2023-02-01T08:51:20.066Z,9.00
2023-02-01T08:53:48.434Z,6.70
2023-02-01T08:56:17.437Z,8.20
2023-02-01T08:58:46.113Z,9.90
2023-02-01T09:01:16.421Z,8.90
2023-02-01T09:03:45.006Z,9.50
2023-02-01T09:06:14.846Z,8.10
2023-02-01T09:08:48.239Z,7.50
2023-02-01T09:11:18.404Z,7.80
2023-02-01T09:13:47.667Z,9.10
2023-02-01T09:16:17.025Z,9.50
2023-02-01T09:18:55.852Z,7.40
2023-02-01T09:21:30.768Z,7.00
2023-02-01T09:23:59.322Z,8.10
2023-02-01T09:26:32.625Z,8.60
2023-02-01T09:29:01.640Z,7.60
2023-02-01T09:31:31.671Z,7.80
2023-02-01T14:09:37.925Z,4.90
2023-02-01T14:12:45.609Z,5.40
2023-02-01T14:15:22.728Z,5.80
2023-02-01T14:17:51.915Z,5.70
2023-02-01T14:20:51.618Z,5.40
2023-02-01T14:23:22.449Z,5.70
2023-02-01T14:26:03.729Z,5.20
2023-02-01T14:28:33.540Z,5.60
2023-02-01T14:31:02.014Z,5.90
2023-02-01T14:33:30.920Z,5.70
2023-02-01T14:36:10.976Z,6.20
2023-02-01T14:38:39.460Z,6.00
2023-02-01T14:41:35.688Z,6.40
2023-02-01T14:44:03.964Z,5.40
2023-02-01T14:47:03.615Z,5.80
2023-02-01T14:49:41.420Z,6.30
2023-02-01T14:52:14.777Z,6.80
2023-02-01T14:54:43.166Z,6.60
2023-02-01T14:57:18.098Z,6.10
2023-02-01T14:59:46.689Z,6.40
2023-02-01T15:02:22.214Z,7.80
2023-02-01T15:04:55.717Z,6.10
2023-02-01T15:07:28.215Z,6.30
2023-02-01T15:09:58.329Z,5.30
2023-02-01T15:12:31.740Z,6.20
2023-02-01T15:15:21.856Z,6.20
2023-02-01T15:17:58.342Z,6.00
2023-02-01T15:20:31.677Z,6.60
2023-02-01T15:23:04.251Z,5.80
2023-02-01T15:25:38.077Z,6.00
2023-02-01T15:28:09.617Z,6.60
2023-02-01T15:30:38.074Z,7.00
2023-02-01T15:33:08.222Z,5.70
2023-02-01T15:35:43.680Z,6.10
2023-02-01T15:38:28.548Z,6.20
2023-02-01T15:41:03.060Z,6.90
2023-02-01T15:43:58.789Z,6.90
2023-02-01T15:46:33.472Z,6.70
2023-02-01T15:49:04.048Z,7.60
2023-02-01T15:51:36.011Z,7.50
2023-02-01T15:54:11.374Z,6.90
2023-02-01T15:56:42.429Z,7.10
2023-02-01T15:59:18.076Z,6.30
2023-02-01T16:01:46.768Z,6.50
2023-02-01T16:04:26.081Z,6.40
2023-02-01T16:07:01.681Z,6.50
2023-02-01T16:09:41.592Z,6.00
2023-02-01T16:12:39.567Z,6.10
2023-02-01T16:15:09.489Z,5.80
2023-02-01T16:17:37.957Z,5.90
2023-02-01T16:20:07.200Z,7.10
2023-02-01T16:22:35.539Z,4.90
2023-02-01T16:25:04.536Z,5.80
2023-02-01T16:27:34.146Z,7.30
2023-02-01T16:30:02.525Z,7.10
2023-02-01T16:32:31.325Z,7.10
2023-02-01T16:35:00.114Z,7.10
2023-02-01T16:37:30.429Z,6.40
2023-02-01T16:39:58.813Z,7.60
2023-02-01T16:42:27.771Z,7.30
2023-02-01T16:44:56.193Z,7.30
2023-02-01T16:47:24.981Z,7.30
2023-02-01T16:49:56.840Z,7.10
2023-02-01T16:52:26.268Z,7.10
2023-02-01T16:54:54.837Z,7.30
2023-02-01T16:57:25.060Z,7.70
2023-02-01T16:59:53.950Z,6.20
2023-02-01T17:02:23.148Z,7.10
2023-02-01T17:04:51.586Z,6.40
2023-02-01T17:07:20.122Z,7.10
2023-02-01T17:09:48.711Z,6.80
2023-02-01T17:12:26.017Z,7.00
2023-02-01T17:14:54.477Z,6.70
2023-02-01T17:17:29.045Z,6.20
2023-02-01T17:20:07.510Z,7.40
2023-02-01T17:22:35.901Z,5.50
2023-02-01T17:25:07.141Z,6.90
2023-02-01T17:27:39.107Z,6.80
2023-02-01T17:30:10.436Z,6.70
2023-02-01T17:32:39.859Z,6.70
2023-02-01T17:35:20.894Z,8.30
2023-02-01T17:37:49.836Z,7.10
2023-02-01T17:40:18.824Z,6.40
2023-02-01T17:42:47.420Z,6.60
2023-02-01T17:45:36.980Z,6.00
2023-02-01T17:48:06.753Z,5.20
2023-02-01T20:12:19.003Z,5.30
2023-02-01T20:14:47.272Z,4.40
2023-02-01T20:17:18.043Z,4.20
2023-02-01T20:22:14.793Z,4.20
2023-02-01T20:24:43.157Z,4.60
2023-02-01T20:27:13.420Z,4.20
2023-02-01T20:29:41.806Z,3.80
2023-02-01T20:32:10.594Z,4.50
2023-02-01T20:34:39.182Z,3.70
2023-02-01T20:37:07.564Z,4.60
2023-02-01T20:39:36.083Z,4.60
2023-02-01T20:42:04.532Z,4.90
2023-02-01T20:44:33.220Z,4.90
2023-02-01T20:47:03.344Z,4.30
2023-02-01T20:49:34.910Z,5.00
2023-02-01T20:52:03.285Z,4.40
2023-02-01T20:54:32.687Z,4.90
2023-02-01T20:57:01.076Z,4.50
2023-02-01T20:59:29.653Z,4.70
2023-02-01T21:01:58.147Z,4.30
2023-02-01T21:04:30.410Z,5.10
2023-02-01T21:07:02.995Z,5.00
2023-02-01T21:09:32.004Z,4.30
2023-02-01T21:12:00.475Z,3.90
2023-02-01T21:14:30.188Z,4.50
2023-02-01T21:16:58.581Z,4.10
2023-02-01T21:19:27.356Z,4.30
2023-02-01T21:21:56.046Z,4.90
2023-02-01T21:24:24.631Z,4.70
2023-02-01T21:26:53.036Z,4.60
2023-02-01T21:29:21.686Z,5.10
2023-02-01T21:31:50.419Z,4.80
2023-02-01T21:34:19.078Z,6.00
2023-02-01T21:36:48.275Z,5.80
2023-02-01T21:39:17.986Z,4.70
2023-02-01T21:42:04.912Z,4.40
2023-02-01T21:44:33.591Z,4.80
2023-02-01T21:47:02.486Z,4.50
2023-02-01T21:49:30.965Z,4.90
2023-02-01T21:52:00.780Z,4.20
2023-02-01T21:54:29.570Z,4.40
2023-02-01T21:56:57.972Z,4.00
2023-02-01T21:59:26.639Z,4.30
2023-02-01T22:01:55.020Z,4.60
2023-02-01T22:04:23.709Z,4.60
2023-02-01T22:06:52.091Z,4.70
2023-02-01T22:09:22.589Z,4.10
2023-02-01T22:11:51.632Z,4.70
2023-02-01T22:14:20.326Z,4.20
2023-02-01T22:16:49.134Z,5.40
2023-02-01T22:19:18.555Z,5.10
2023-02-01T22:21:48.207Z,6.20
2023-02-01T22:24:18.364Z,5.00
2023-02-01T22:26:47.430Z,5.80
2023-02-01T22:29:17.444Z,5.00
2023-02-01T22:31:46.137Z,5.20
2023-02-01T22:34:15.857Z,5.60
2023-02-01T22:36:44.438Z,5.50
2023-02-01T22:39:12.815Z,5.40
2023-02-01T22:41:41.398Z,5.30
2023-02-01T22:44:09.983Z,5.40
2023-02-01T22:46:38.364Z,5.80
2023-02-01T22:49:07.153Z,6.30
2023-02-01T22:51:36.551Z,5.60
2023-02-01T22:54:05.039Z,4.00
2023-02-01T22:56:35.520Z,5.90
2023-02-01T22:59:07.971Z,5.20
2023-02-01T23:01:36.328Z,5.70
2023-02-01T23:04:06.231Z,6.00
2023-02-01T23:06:35.543Z,5.40
2023-02-01T23:09:14.769Z,5.60
2023-02-01T23:11:43.663Z,5.70
2023-02-01T23:14:12.592Z,5.30
2023-02-01T23:16:41.670Z,5.60
2023-02-01T23:19:10.033Z,5.30
2023-02-01T23:21:39.541Z,5.10
2023-02-01T23:24:10.225Z,5.40
2023-02-01T23:26:39.194Z,5.10
2023-02-01T23:29:07.872Z,3.60
2023-02-01T23:31:36.501Z,5.30
2023-02-01T23:34:04.947Z,5.90
2023-02-01T23:36:35.670Z,5.40
2023-02-01T23:39:04.369Z,4.60
2023-02-01T23:41:33.970Z,7.10
2023-02-01T23:44:02.555Z,6.00
2023-02-01T23:46:35.717Z,5.60
2023-02-01T23:49:05.803Z,6.70
2023-02-01T23:51:34.462Z,6.20
2023-02-01T23:54:03.050Z,6.40
2023-02-01T23:56:42.096Z,6.10
2023-02-01T23:59:21.731Z,5.80
